sensor_id;sensor_type;location;lat;lon;timestamp;pressure;altitude;pressure_sealevel;temperature;humidity
62038;BME280;47991;42.974;12.082;2023-02-13T00:01:06;99499.53;;;2.53;58.71
62038;BME280;47991;42.974;12.082;2023-02-13T00:03:35;99505.19;;;2.33;59.11
62038;BME280;47991;42.974;12.082;2023-02-13T00:06:03;99515.63;;;1.95;60.56
62038;BME280;47991;42.974;12.082;2023-02-13T00:08:31;99515.32;;;1.76;59.80
62038;BME280;47991;42.974;12.082;2023-02-13T00:10:58;99511.11;;;1.70;59.79
62038;BME280;47991;42.974;12.082;2023-02-13T00:13:27;99509.46;;;1.69;62.39
62038;BME280;47991;42.974;12.082;2023-02-13T00:16:00;99508.98;;;1.70;62.12
62038;BME280;47991;42.974;12.082;2023-02-13T00:18:29;99506.77;;;1.66;62.50
62038;BME280;47991;42.974;12.082;2023-02-13T00:21:02;99506.57;;;1.50;61.57
62038;BME280;47991;42.974;12.082;2023-02-13T00:23:31;99503.74;;;1.40;62.08
62038;BME280;47991;42.974;12.082;2023-02-13T00:26:00;99507.44;;;1.31;62.62
62038;BME280;47991;42.974;12.082;2023-02-13T00:28:27;99513.15;;;1.26;62.05
62038;BME280;47991;42.974;12.082;2023-02-13T00:31:14;99511.38;;;1.19;62.91
62038;BME280;47991;42.974;12.082;2023-02-13T00:33:42;99511.35;;;1.20;64.43
62038;BME280;47991;42.974;12.082;2023-02-13T00:36:16;99515.39;;;1.10;62.01
62038;BME280;47991;42.974;12.082;2023-02-13T00:38:46;99522.47;;;0.81;63.43
62038;BME280;47991;42.974;12.082;2023-02-13T00:41:14;99519.97;;;0.70;61.29
62038;BME280;47991;42.974;12.082;2023-02-13T00:43:45;99515.82;;;0.67;62.95
62038;BME280;47991;42.974;12.082;2023-02-13T00:46:14;99519.63;;;0.71;67.34
62038;BME280;47991;42.974;12.082;2023-02-13T00:48:42;99519.73;;;0.73;63.26
62038;BME280;47991;42.974;12.082;2023-02-13T00:51:10;99524.61;;;0.69;62.88
62038;BME280;47991;42.974;12.082;2023-02-13T00:53:39;99526.21;;;0.62;62.44
62038;BME280;47991;42.974;12.082;2023-02-13T00:56:08;99530.26;;;0.53;63.25
62038;BME280;47991;42.974;12.082;2023-02-13T00:58:36;99534.50;;;0.50;64.03
62038;BME280;47991;42.974;12.082;2023-02-13T01:01:04;99535.35;;;0.64;65.07
62038;BME280;47991;42.974;12.082;2023-02-13T01:03:32;99528.39;;;0.72;65.44
62038;BME280;47991;42.974;12.082;2023-02-13T01:06:00;99526.20;;;0.83;66.73
62038;BME280;47991;42.974;12.082;2023-02-13T01:08:27;99522.10;;;0.99;65.74
62038;BME280;47991;42.974;12.082;2023-02-13T01:10:55;99522.77;;;1.08;66.09
62038;BME280;47991;42.974;12.082;2023-02-13T01:13:23;99519.11;;;1.12;66.94
62038;BME280;47991;42.974;12.082;2023-02-13T01:15:51;99521.70;;;1.21;66.03
62038;BME280;47991;42.974;12.082;2023-02-13T01:18:20;99521.66;;;1.20;65.20
62038;BME280;47991;42.974;12.082;2023-02-13T01:20:56;99524.27;;;1.06;66.67
62038;BME280;47991;42.974;12.082;2023-02-13T01:23:24;99521.85;;;1.06;67.94
62038;BME280;47991;42.974;12.082;2023-02-13T01:25:52;99518.47;;;1.14;70.60
62038;BME280;47991;42.974;12.082;2023-02-13T01:28:19;99515.63;;;1.17;67.41
62038;BME280;47991;42.974;12.082;2023-02-13T01:30:55;99520.81;;;1.21;66.03
62038;BME280;47991;42.974;12.082;2023-02-13T01:33:26;99523.23;;;1.15;65.17
62038;BME280;47991;42.974;12.082;2023-02-13T01:35:53;99522.58;;;0.93;66.20
62038;BME280;47991;42.974;12.082;2023-02-13T01:38:21;99522.87;;;0.74;67.06
62038;BME280;47991;42.974;12.082;2023-02-13T01:40:51;99524.26;;;0.64;69.44
62038;BME280;47991;42.974;12.082;2023-02-13T01:43:19;99528.45;;;0.60;70.48
62038;BME280;47991;42.974;12.082;2023-02-13T01:45:54;99530.02;;;0.56;69.72
62038;BME280;47991;42.974;12.082;2023-02-13T01:48:24;99522.64;;;0.50;69.14
62038;BME280;47991;42.974;12.082;2023-02-13T01:51:00;99522.63;;;0.36;67.18
62038;BME280;47991;42.974;12.082;2023-02-13T01:53:40;99522.22;;;0.30;67.29
62038;BME280;47991;42.974;12.082;2023-02-13T01:58:39;99523.66;;;0.41;69.00
62038;BME280;47991;42.974;12.082;2023-02-13T02:01:08;99522.34;;;0.47;70.20
62038;BME280;47991;42.974;12.082;2023-02-13T02:04:06;99523.91;;;0.43;70.33
62038;BME280;47991;42.974;12.082;2023-02-13T02:06:43;99531.16;;;0.45;70.60
62038;BME280;47991;42.974;12.082;2023-02-13T02:09:16;99533.11;;;0.51;69.41
62038;BME280;47991;42.974;12.082;2023-02-13T02:14:35;99527.02;;;0.55;68.59
62038;BME280;47991;42.974;12.082;2023-02-13T02:17:06;99528.41;;;0.55;69.17
62038;BME280;47991;42.974;12.082;2023-02-13T02:19:42;99532.84;;;0.53;68.67
62038;BME280;47991;42.974;12.082;2023-02-13T02:22:27;99535.76;;;0.34;68.61
62038;BME280;47991;42.974;12.082;2023-02-13T02:34:06;99537.23;;;0.36;69.41
62038;BME280;47991;42.974;12.082;2023-02-13T02:37:03;99537.32;;;0.47;69.33
62038;BME280;47991;42.974;12.082;2023-02-13T02:43:03;99541.27;;;0.33;70.00
62038;BME280;47991;42.974;12.082;2023-02-13T02:46:11;99545.56;;;0.15;69.74
62038;BME280;47991;42.974;12.082;2023-02-13T02:52:04;99536.33;;;-0.10;71.04
62038;BME280;47991;42.974;12.082;2023-02-13T02:57:33;99534.88;;;0.00;71.31
62038;BME280;47991;42.974;12.082;2023-02-13T03:00:47;99534.08;;;0.06;70.65
62038;BME280;47991;42.974;12.082;2023-02-13T03:03:35;99529.21;;;-0.02;71.74
62038;BME280;47991;42.974;12.082;2023-02-13T03:06:51;99535.58;;;-0.07;72.41
62038;BME280;47991;42.974;12.082;2023-02-13T03:09:25;99538.73;;;-0.15;75.16
62038;BME280;47991;42.974;12.082;2023-02-13T03:12:18;99538.79;;;-0.10;71.47
62038;BME280;47991;42.974;12.082;2023-02-13T03:15:26;99543.75;;;-0.12;71.21
62038;BME280;47991;42.974;12.082;2023-02-13T03:17:56;99541.19;;;-0.27;71.66
62038;BME280;47991;42.974;12.082;2023-02-13T03:20:54;99546.59;;;-0.31;70.44
62038;BME280;47991;42.974;12.082;2023-02-13T03:24:10;99550.36;;;-0.36;70.15
62038;BME280;47991;42.974;12.082;2023-02-13T03:35:26;99554.58;;;-0.59;73.61
62038;BME280;47991;42.974;12.082;2023-02-13T03:38:26;99559.10;;;-0.54;72.43
62038;BME280;47991;42.974;12.082;2023-02-13T03:41:18;99556.77;;;-0.52;72.08
62038;BME280;47991;42.974;12.082;2023-02-13T03:46:38;99562.91;;;-0.51;74.13
62038;BME280;47991;42.974;12.082;2023-02-13T03:49:22;99555.45;;;-0.51;71.95
62038;BME280;47991;42.974;12.082;2023-02-13T03:52:15;99555.97;;;-0.43;72.33
62038;BME280;47991;42.974;12.082;2023-02-13T03:54:51;99561.81;;;-0.32;75.43
62038;BME280;47991;42.974;12.082;2023-02-13T03:57:41;99562.46;;;-0.25;75.39
62038;BME280;47991;42.974;12.082;2023-02-13T04:00:38;99555.52;;;-0.21;75.46
62038;BME280;47991;42.974;12.082;2023-02-13T04:04:04;99558.53;;;-0.16;74.42
62038;BME280;47991;42.974;12.082;2023-02-13T04:08:35;99560.66;;;-0.11;73.65
62038;BME280;47991;42.974;12.082;2023-02-13T04:11:32;99557.65;;;0.00;73.11
62038;BME280;47991;42.974;12.082;2023-02-13T04:14:22;99558.80;;;0.02;73.41
62038;BME280;47991;42.974;12.082;2023-02-13T04:16:56;99560.30;;;-0.11;73.05
62038;BME280;47991;42.974;12.082;2023-02-13T04:19:28;99562.98;;;-0.33;73.94
62038;BME280;47991;42.974;12.082;2023-02-13T04:21:57;99565.68;;;-0.47;73.77
62038;BME280;47991;42.974;12.082;2023-02-13T04:24:26;99564.90;;;-0.49;73.11
62038;BME280;47991;42.974;12.082;2023-02-13T04:26:54;99565.48;;;-0.48;73.65
62038;BME280;47991;42.974;12.082;2023-02-13T04:29:23;99566.41;;;-0.54;73.39
62038;BME280;47991;42.974;12.082;2023-02-13T04:31:51;99567.36;;;-0.60;73.73
62038;BME280;47991;42.974;12.082;2023-02-13T04:34:19;99568.82;;;-0.59;74.10
62038;BME280;47991;42.974;12.082;2023-02-13T04:36:46;99569.76;;;-0.57;73.93
62038;BME280;47991;42.974;12.082;2023-02-13T04:39:14;99571.66;;;-0.65;74.21
62038;BME280;47991;42.974;12.082;2023-02-13T04:41:42;99567.61;;;-0.78;74.78
62038;BME280;47991;42.974;12.082;2023-02-13T04:44:09;99570.23;;;-0.85;74.65
62038;BME280;47991;42.974;12.082;2023-02-13T04:46:36;99572.31;;;-0.93;73.76
62038;BME280;47991;42.974;12.082;2023-02-13T04:49:05;99570.86;;;-0.94;74.00
62038;BME280;47991;42.974;12.082;2023-02-13T04:51:32;99574.42;;;-0.96;73.22
62038;BME280;47991;42.974;12.082;2023-02-13T04:54:00;99572.33;;;-0.96;74.25
62038;BME280;47991;42.974;12.082;2023-02-13T04:56:27;99575.10;;;-0.85;73.88
62038;BME280;47991;42.974;12.082;2023-02-13T04:58:55;99578.88;;;-0.74;74.04
62038;BME280;47991;42.974;12.082;2023-02-13T05:01:22;99576.17;;;-0.69;74.64
62038;BME280;47991;42.974;12.082;2023-02-13T05:03:50;99580.14;;;-0.74;75.02
62038;BME280;47991;42.974;12.082;2023-02-13T05:06:18;99582.42;;;-0.88;75.24
62038;BME280;47991;42.974;12.082;2023-02-13T05:08:45;99585.65;;;-0.97;75.75
62038;BME280;47991;42.974;12.082;2023-02-13T05:11:13;99584.90;;;-0.95;76.54
62038;BME280;47991;42.974;12.082;2023-02-13T05:13:40;99579.94;;;-0.89;76.43
62038;BME280;47991;42.974;12.082;2023-02-13T05:16:08;99582.66;;;-0.94;75.45
62038;BME280;47991;42.974;12.082;2023-02-13T05:18:37;99584.83;;;-1.04;75.02
62038;BME280;47991;42.974;12.082;2023-02-13T05:21:04;99586.80;;;-1.09;74.11
62038;BME280;47991;42.974;12.082;2023-02-13T05:23:50;99587.53;;;-1.20;74.75
62038;BME280;47991;42.974;12.082;2023-02-13T05:26:17;99595.98;;;-1.25;75.31
62038;BME280;47991;42.974;12.082;2023-02-13T05:28:45;99593.23;;;-1.32;75.10
62038;BME280;47991;42.974;12.082;2023-02-13T05:31:31;99597.58;;;-1.35;74.75
62038;BME280;47991;42.974;12.082;2023-02-13T05:33:59;99595.85;;;-1.31;74.99
62038;BME280;47991;42.974;12.082;2023-02-13T05:36:28;99594.39;;;-1.29;74.82
62038;BME280;47991;42.974;12.082;2023-02-13T05:38:56;99603.31;;;-1.31;74.97
62038;BME280;47991;42.974;12.082;2023-02-13T05:41:24;99603.38;;;-1.37;74.83
62038;BME280;47991;42.974;12.082;2023-02-13T05:43:51;99607.91;;;-1.40;75.09
62038;BME280;47991;42.974;12.082;2023-02-13T05:46:19;99610.38;;;-1.46;74.78
62038;BME280;47991;42.974;12.082;2023-02-13T05:48:46;99610.14;;;-1.44;75.24
62038;BME280;47991;42.974;12.082;2023-02-13T05:51:13;99613.45;;;-1.44;74.67
62038;BME280;47991;42.974;12.082;2023-02-13T05:53:41;99620.39;;;-1.40;75.10
62038;BME280;47991;42.974;12.082;2023-02-13T05:56:08;99618.27;;;-1.30;74.90
62038;BME280;47991;42.974;12.082;2023-02-13T05:58:36;99621.98;;;-1.18;74.79
62038;BME280;47991;42.974;12.082;2023-02-13T06:01:04;99619.41;;;-1.17;75.87
62038;BME280;47991;42.974;12.082;2023-02-13T06:03:32;99619.44;;;-1.21;75.99
62038;BME280;47991;42.974;12.082;2023-02-13T06:05:59;99623.61;;;-1.17;76.65
62038;BME280;47991;42.974;12.082;2023-02-13T06:08:28;99622.86;;;-1.10;76.69
62038;BME280;47991;42.974;12.082;2023-02-13T06:10:57;99623.91;;;-1.07;77.10
62038;BME280;47991;42.974;12.082;2023-02-13T06:13:25;99625.16;;;-1.06;77.58
62038;BME280;47991;42.974;12.082;2023-02-13T06:15:52;99624.84;;;-1.09;76.04
62038;BME280;47991;42.974;12.082;2023-02-13T06:18:20;99632.73;;;-1.18;75.52
62038;BME280;47991;42.974;12.082;2023-02-13T06:20:48;99632.02;;;-1.29;75.66
62038;BME280;47991;42.974;12.082;2023-02-13T06:23:15;99633.30;;;-1.32;76.31
62038;BME280;47991;42.974;12.082;2023-02-13T06:25:43;99631.71;;;-1.29;76.84
62038;BME280;47991;42.974;12.082;2023-02-13T06:28:11;99633.77;;;-1.19;76.45
62038;BME280;47991;42.974;12.082;2023-02-13T06:30:38;99634.30;;;-1.18;76.23
62038;BME280;47991;42.974;12.082;2023-02-13T06:33:06;99637.68;;;-1.24;76.88
62038;BME280;47991;42.974;12.082;2023-02-13T06:35:33;99642.30;;;-1.21;76.87
62038;BME280;47991;42.974;12.082;2023-02-13T06:38:01;99640.11;;;-1.13;77.09
62038;BME280;47991;42.974;12.082;2023-02-13T06:40:28;99635.60;;;-0.95;76.25
62038;BME280;47991;42.974;12.082;2023-02-13T06:42:56;99631.98;;;-0.64;76.51
62038;BME280;47991;42.974;12.082;2023-02-13T06:45:23;99634.69;;;-0.31;76.03
62038;BME280;47991;42.974;12.082;2023-02-13T06:47:51;99638.93;;;0.51;75.89
62038;BME280;47991;42.974;12.082;2023-02-13T06:50:18;99639.34;;;1.27;74.22
62038;BME280;47991;42.974;12.082;2023-02-13T06:52:48;99637.05;;;1.39;73.41
62038;BME280;47991;42.974;12.082;2023-02-13T06:55:16;99640.11;;;1.56;73.70
62038;BME280;47991;42.974;12.082;2023-02-13T06:57:44;99641.42;;;1.92;73.25
62038;BME280;47991;42.974;12.082;2023-02-13T07:00:13;99643.94;;;2.18;72.49
62038;BME280;47991;42.974;12.082;2023-02-13T07:02:43;99647.02;;;2.06;72.57
62038;BME280;47991;42.974;12.082;2023-02-13T07:05:11;99645.44;;;2.01;72.98
62038;BME280;47991;42.974;12.082;2023-02-13T07:07:41;99649.47;;;2.12;73.48
62038;BME280;47991;42.974;12.082;2023-02-13T07:10:11;99652.31;;;2.23;73.60
62038;BME280;47991;42.974;12.082;2023-02-13T07:12:39;99653.66;;;2.52;73.30
62038;BME280;47991;42.974;12.082;2023-02-13T07:15:08;99647.75;;;3.12;73.58
62038;BME280;47991;42.974;12.082;2023-02-13T07:17:36;99652.05;;;3.38;73.07
62038;BME280;47991;42.974;12.082;2023-02-13T07:20:05;99649.44;;;3.44;71.46
62038;BME280;47991;42.974;12.082;2023-02-13T07:22:34;99645.92;;;3.49;71.54
62038;BME280;47991;42.974;12.082;2023-02-13T07:25:02;99641.20;;;3.61;70.97
62038;BME280;47991;42.974;12.082;2023-02-13T07:27:30;99638.56;;;3.54;71.23
62038;BME280;47991;42.974;12.082;2023-02-13T07:30:24;99642.59;;;3.43;71.37
62038;BME280;47991;42.974;12.082;2023-02-13T07:32:58;99641.98;;;3.40;71.20
62038;BME280;47991;42.974;12.082;2023-02-13T07:35:32;99643.45;;;3.42;70.72
62038;BME280;47991;42.974;12.082;2023-02-13T07:38:10;99641.86;;;3.48;70.94
62038;BME280;47991;42.974;12.082;2023-02-13T07:40:38;99642.52;;;3.52;71.74
62038;BME280;47991;42.974;12.082;2023-02-13T07:43:07;99646.48;;;3.62;71.70
62038;BME280;47991;42.974;12.082;2023-02-13T07:45:35;99648.20;;;3.61;72.26
62038;BME280;47991;42.974;12.082;2023-02-13T07:48:07;99649.95;;;3.73;72.05
62038;BME280;47991;42.974;12.082;2023-02-13T07:50:46;99649.77;;;3.90;72.08
62038;BME280;47991;42.974;12.082;2023-02-13T07:53:19;99646.60;;;4.02;72.23
62038;BME280;47991;42.974;12.082;2023-02-13T07:56:09;99650.05;;;4.20;71.52
62038;BME280;47991;42.974;12.082;2023-02-13T07:58:38;99650.48;;;4.35;71.62
62038;BME280;47991;42.974;12.082;2023-02-13T08:01:08;99651.28;;;4.53;71.69
62038;BME280;47991;42.974;12.082;2023-02-13T08:03:36;99651.35;;;4.76;70.78
62038;BME280;47991;42.974;12.082;2023-02-13T08:06:06;99653.29;;;4.98;70.77
62038;BME280;47991;42.974;12.082;2023-02-13T08:08:34;99647.77;;;5.24;69.91
62038;BME280;47991;42.974;12.082;2023-02-13T08:11:06;99651.45;;;5.47;69.87
62038;BME280;47991;42.974;12.082;2023-02-13T08:14:02;99655.64;;;5.70;69.65
62038;BME280;47991;42.974;12.082;2023-02-13T08:16:29;99657.27;;;5.90;69.50
62038;BME280;47991;42.974;12.082;2023-02-13T08:19:03;99660.42;;;6.05;68.41
62038;BME280;47991;42.974;12.082;2023-02-13T08:21:32;99657.65;;;6.24;68.69
62038;BME280;47991;42.974;12.082;2023-02-13T08:24:03;99656.72;;;6.40;68.07
62038;BME280;47991;42.974;12.082;2023-02-13T08:26:32;99653.05;;;6.50;67.39
62038;BME280;47991;42.974;12.082;2023-02-13T08:29:04;99654.26;;;6.59;66.53
62038;BME280;47991;42.974;12.082;2023-02-13T08:31:32;99655.30;;;6.67;66.30
62038;BME280;47991;42.974;12.082;2023-02-13T08:34:04;99653.58;;;6.70;65.69
62038;BME280;47991;42.974;12.082;2023-02-13T08:36:35;99656.88;;;6.68;64.33
62038;BME280;47991;42.974;12.082;2023-02-13T08:39:03;99651.03;;;6.56;63.88
62038;BME280;47991;42.974;12.082;2023-02-13T08:41:31;99655.55;;;6.72;63.84
62038;BME280;47991;42.974;12.082;2023-02-13T08:43:59;99651.91;;;6.97;63.30
62038;BME280;47991;42.974;12.082;2023-02-13T08:46:27;99650.33;;;7.18;63.37
62038;BME280;47991;42.974;12.082;2023-02-13T08:48:55;99648.52;;;7.39;63.34
62038;BME280;47991;42.974;12.082;2023-02-13T08:51:24;99645.05;;;7.54;62.26
62038;BME280;47991;42.974;12.082;2023-02-13T08:53:53;99649.26;;;7.65;61.44
62038;BME280;47991;42.974;12.082;2023-02-13T08:56:23;99649.30;;;7.97;60.00
62038;BME280;47991;42.974;12.082;2023-02-13T08:58:50;99645.08;;;8.78;57.41
62038;BME280;47991;42.974;12.082;2023-02-13T09:01:19;99642.73;;;8.91;57.07
62038;BME280;47991;42.974;12.082;2023-02-13T09:03:46;99640.02;;;9.29;56.43
62038;BME280;47991;42.974;12.082;2023-02-13T09:06:15;99639.67;;;9.62;54.80
62038;BME280;47991;42.974;12.082;2023-02-13T09:08:43;99636.08;;;10.21;53.92
62038;BME280;47991;42.974;12.082;2023-02-13T09:11:12;99637.78;;;10.78;52.09
62038;BME280;47991;42.974;12.082;2023-02-13T09:13:40;99631.09;;;11.91;49.24
62038;BME280;47991;42.974;12.082;2023-02-13T09:16:10;99625.79;;;13.05;48.08
62038;BME280;47991;42.974;12.082;2023-02-13T09:18:37;99627.19;;;12.27;46.62
62038;BME280;47991;42.974;12.082;2023-02-13T09:21:07;99630.16;;;11.30;46.91
62038;BME280;47991;42.974;12.082;2023-02-13T09:23:37;99634.63;;;10.86;48.09
62038;BME280;47991;42.974;12.082;2023-02-13T09:26:09;99634.27;;;10.75;49.83
62038;BME280;47991;42.974;12.082;2023-02-13T09:28:39;99637.73;;;10.38;48.54
62038;BME280;47991;42.974;12.082;2023-02-13T09:31:14;99638.19;;;10.19;49.46
62038;BME280;47991;42.974;12.082;2023-02-13T09:33:46;99637.45;;;10.11;48.93
62038;BME280;47991;42.974;12.082;2023-02-13T09:36:17;99638.14;;;10.61;48.69
62038;BME280;47991;42.974;12.082;2023-02-13T09:38:51;99633.20;;;10.84;48.90
62038;BME280;47991;42.974;12.082;2023-02-13T09:41:44;99633.91;;;11.15;49.37
62038;BME280;47991;42.974;12.082;2023-02-13T09:44:36;99636.76;;;12.00;45.99
62038;BME280;47991;42.974;12.082;2023-02-13T09:47:36;99633.27;;;11.71;44.67
62038;BME280;47991;42.974;12.082;2023-02-13T09:52:46;99638.87;;;11.13;45.75
62038;BME280;47991;42.974;12.082;2023-02-13T09:55:42;99646.98;;;10.56;45.59
62038;BME280;47991;42.974;12.082;2023-02-13T09:58:45;99644.67;;;10.54;46.77
62038;BME280;47991;42.974;12.082;2023-02-13T10:01:20;99642.39;;;10.64;46.80
62038;BME280;47991;42.974;12.082;2023-02-13T10:06:38;99636.57;;;10.94;45.65
62038;BME280;47991;42.974;12.082;2023-02-13T10:09:26;99637.81;;;10.97;45.43
62038;BME280;47991;42.974;12.082;2023-02-13T10:12:33;99634.58;;;11.45;44.05
62038;BME280;47991;42.974;12.082;2023-02-13T10:15:34;99627.77;;;12.23;42.92
62038;BME280;47991;42.974;12.082;2023-02-13T10:18:12;99630.20;;;12.35;42.14
62038;BME280;47991;42.974;12.082;2023-02-13T10:20:51;99627.60;;;12.53;41.95
62038;BME280;47991;42.974;12.082;2023-02-13T10:23:39;99632.63;;;12.45;42.68
62038;BME280;47991;42.974;12.082;2023-02-13T10:26:19;99627.16;;;12.02;42.21
62038;BME280;47991;42.974;12.082;2023-02-13T10:28:50;99627.93;;;11.82;42.70
62038;BME280;47991;42.974;12.082;2023-02-13T10:31:46;99630.85;;;11.50;44.23
62038;BME280;47991;42.974;12.082;2023-02-13T10:34:16;99629.23;;;11.58;43.84
62038;BME280;47991;42.974;12.082;2023-02-13T10:36:46;99629.61;;;11.47;43.97
62038;BME280;47991;42.974;12.082;2023-02-13T10:39:24;99633.18;;;11.32;44.58
62038;BME280;47991;42.974;12.082;2023-02-13T10:41:53;99634.63;;;11.18;44.79
62038;BME280;47991;42.974;12.082;2023-02-13T10:47:40;99627.55;;;10.79;44.89
62038;BME280;47991;42.974;12.082;2023-02-13T11:01:41;99610.48;;;11.42;45.00
62038;BME280;47991;42.974;12.082;2023-02-13T11:04:17;99607.82;;;11.51;45.16
62038;BME280;47991;42.974;12.082;2023-02-13T11:07:03;99607.46;;;11.55;44.17
62038;BME280;47991;42.974;12.082;2023-02-13T11:09:37;99605.13;;;11.65;45.10
62038;BME280;47991;42.974;12.082;2023-02-13T11:12:24;99605.83;;;11.66;44.00
62038;BME280;47991;42.974;12.082;2023-02-13T11:15:01;99605.20;;;11.31;43.02
62038;BME280;47991;42.974;12.082;2023-02-13T11:17:33;99598.11;;;11.34;43.33
62038;BME280;47991;42.974;12.082;2023-02-13T11:20:07;99592.77;;;11.49;43.84
62038;BME280;47991;42.974;12.082;2023-02-13T11:22:49;99590.76;;;11.67;42.75
62038;BME280;47991;42.974;12.082;2023-02-13T11:25:20;99589.11;;;11.80;43.04
62038;BME280;47991;42.974;12.082;2023-02-13T11:27:50;99586.33;;;11.69;43.25
62038;BME280;47991;42.974;12.082;2023-02-13T11:30:32;99588.98;;;11.74;42.47
62038;BME280;47991;42.974;12.082;2023-02-13T11:33:17;99585.45;;;11.69;42.81
62038;BME280;47991;42.974;12.082;2023-02-13T11:35:47;99581.17;;;11.77;41.92
62038;BME280;47991;42.974;12.082;2023-02-13T11:40:50;99572.58;;;12.31;41.02
62038;BME280;47991;42.974;12.082;2023-02-13T11:49:01;99555.67;;;13.03;38.05
62038;BME280;47991;42.974;12.082;2023-02-13T11:51:50;99549.86;;;12.98;38.31
62038;BME280;47991;42.974;12.082;2023-02-13T11:54:44;99550.66;;;12.46;38.68
62038;BME280;47991;42.974;12.082;2023-02-13T11:57:21;99544.70;;;13.18;37.63
62038;BME280;47991;42.974;12.082;2023-02-13T11:59:51;99544.23;;;13.47;37.59
62038;BME280;47991;42.974;12.082;2023-02-13T12:02:28;99544.15;;;13.39;37.10
62038;BME280;47991;42.974;12.082;2023-02-13T12:07:42;99535.21;;;13.26;38.91
62038;BME280;47991;42.974;12.082;2023-02-13T12:13:06;99534.68;;;13.26;39.70
62038;BME280;47991;42.974;12.082;2023-02-13T12:15:40;99531.88;;;13.39;39.15
62038;BME280;47991;42.974;12.082;2023-02-13T12:18:18;99529.16;;;13.09;39.01
62038;BME280;47991;42.974;12.082;2023-02-13T12:26:31;99517.31;;;12.87;39.41
62038;BME280;47991;42.974;12.082;2023-02-13T12:45:40;99494.73;;;13.84;36.89
62038;BME280;47991;42.974;12.082;2023-02-13T12:53:34;99495.35;;;13.63;39.05
62038;BME280;47991;42.974;12.082;2023-02-13T12:58:57;99494.46;;;13.64;38.10
62038;BME280;47991;42.974;12.082;2023-02-13T13:07:18;99473.60;;;14.39;38.45
62038;BME280;47991;42.974;12.082;2023-02-13T13:16:01;99467.14;;;14.43;36.72
62038;BME280;47991;42.974;12.082;2023-02-13T13:21:24;99461.90;;;14.59;37.04
62038;BME280;47991;42.974;12.082;2023-02-13T13:27:45;99464.23;;;14.58;36.60
62038;BME280;47991;42.974;12.082;2023-02-13T13:30:18;99460.31;;;14.69;35.68
62038;BME280;47991;42.974;12.082;2023-02-13T13:32:53;99454.18;;;14.52;36.10
62038;BME280;47991;42.974;12.082;2023-02-13T13:35:23;99456.45;;;14.10;35.96
62038;BME280;47991;42.974;12.082;2023-02-13T13:38:18;99463.54;;;13.62;36.52
62038;BME280;47991;42.974;12.082;2023-02-13T13:41:00;99462.86;;;13.61;37.13
62038;BME280;47991;42.974;12.082;2023-02-13T13:46:59;99468.48;;;13.65;37.47
62038;BME280;47991;42.974;12.082;2023-02-13T13:52:23;99466.95;;;13.61;37.52
62038;BME280;47991;42.974;12.082;2023-02-13T13:54:52;99469.92;;;13.52;37.19
62038;BME280;47991;42.974;12.082;2023-02-13T13:57:57;99474.37;;;13.35;37.32
62038;BME280;47991;42.974;12.082;2023-02-13T14:07:57;99465.55;;;13.72;38.13
62038;BME280;47991;42.974;12.082;2023-02-13T14:16:07;99458.61;;;14.09;36.63
62038;BME280;47991;42.974;12.082;2023-02-13T14:18:17;99460.91;;;14.21;36.04
62038;BME280;47991;42.974;12.082;2023-02-13T14:26:38;99457.99;;;14.79;36.51
62038;BME280;47991;42.974;12.082;2023-02-13T14:31:38;99460.39;;;14.63;35.23
62038;BME280;47991;42.974;12.082;2023-02-13T14:37:46;99455.19;;;14.45;36.73
62038;BME280;47991;42.974;12.082;2023-02-13T14:42:45;99451.88;;;14.19;35.58
62038;BME280;47991;42.974;12.082;2023-02-13T14:45:21;99457.52;;;13.62;36.62
62038;BME280;47991;42.974;12.082;2023-02-13T14:47:53;99454.38;;;13.58;36.77
62038;BME280;47991;42.974;12.082;2023-02-13T14:53:06;99455.13;;;13.08;37.34
62038;BME280;47991;42.974;12.082;2023-02-13T14:55:41;99452.84;;;13.22;37.73
62038;BME280;47991;42.974;12.082;2023-02-13T14:58:38;99454.84;;;13.35;36.92
62038;BME280;47991;42.974;12.082;2023-02-13T15:04:14;99448.30;;;13.47;37.42
62038;BME280;47991;42.974;12.082;2023-02-13T15:06:44;99449.51;;;13.49;36.69
62038;BME280;47991;42.974;12.082;2023-02-13T15:09:37;99450.38;;;13.51;36.78
62038;BME280;47991;42.974;12.082;2023-02-13T15:12:28;99447.63;;;13.28;36.97
62038;BME280;47991;42.974;12.082;2023-02-13T15:14:56;99450.97;;;13.00;37.36
62038;BME280;47991;42.974;12.082;2023-02-13T15:17:34;99450.02;;;12.90;37.72
62038;BME280;47991;42.974;12.082;2023-02-13T15:20:07;99453.08;;;12.85;37.12
62038;BME280;47991;42.974;12.082;2023-02-13T15:22:45;99450.61;;;12.84;37.67
62038;BME280;47991;42.974;12.082;2023-02-13T15:25:22;99449.77;;;12.78;37.18
62038;BME280;47991;42.974;12.082;2023-02-13T15:27:52;99451.36;;;12.80;37.37
62038;BME280;47991;42.974;12.082;2023-02-13T15:30:25;99451.14;;;12.83;37.35
62038;BME280;47991;42.974;12.082;2023-02-13T15:33:17;99446.86;;;12.85;36.67
62038;BME280;47991;42.974;12.082;2023-02-13T15:35:45;99449.66;;;13.05;37.75
62038;BME280;47991;42.974;12.082;2023-02-13T15:41:04;99450.08;;;13.32;37.38
62038;BME280;47991;42.974;12.082;2023-02-13T15:43:41;99443.67;;;13.34;37.54
62038;BME280;47991;42.974;12.082;2023-02-13T15:46:20;99444.41;;;13.31;37.96
62038;BME280;47991;42.974;12.082;2023-02-13T15:48:51;99445.42;;;13.19;38.27
62038;BME280;47991;42.974;12.082;2023-02-13T15:51:24;99442.93;;;13.04;38.23
62038;BME280;47991;42.974;12.082;2023-02-13T15:53:57;99446.05;;;12.95;38.33
62038;BME280;47991;42.974;12.082;2023-02-13T15:56:34;99448.98;;;12.86;38.59
62038;BME280;47991;42.974;12.082;2023-02-13T15:59:02;99449.09;;;12.76;38.94
62038;BME280;47991;42.974;12.082;2023-02-13T16:01:32;99453.63;;;12.67;39.15
62038;BME280;47991;42.974;12.082;2023-02-13T16:04:05;99454.80;;;12.56;38.91
62038;BME280;47991;42.974;12.082;2023-02-13T16:06:34;99454.52;;;12.47;39.23
62038;BME280;47991;42.974;12.082;2023-02-13T16:09:03;99454.42;;;12.37;39.30
62038;BME280;47991;42.974;12.082;2023-02-13T16:11:36;99456.48;;;12.23;39.42